createdAt,value
2023-04-06T00:00:31.102Z,5.23
2023-04-06T00:02:32.872Z,5.67
2023-04-06T00:04:35.106Z,6.10
2023-04-06T00:06:37.024Z,5.80
2023-04-06T00:08:38.747Z,5.83
2023-04-06T00:10:40.443Z,6.20
2023-04-06T00:12:42.151Z,6.10
2023-04-06T00:14:43.848Z,6.03
2023-04-06T00:16:45.650Z,6.20
2023-04-06T00:18:47.615Z,6.17
2023-04-06T00:20:49.442Z,6.30
2023-04-06T00:22:51.911Z,6.10
2023-04-06T00:24:53.644Z,6.40
2023-04-06T00:26:56.323Z,6.30
2023-04-06T00:28:59.904Z,6.47
2023-04-06T00:31:01.716Z,6.27
2023-04-06T00:33:03.899Z,6.60
2023-04-06T00:35:06.520Z,5.93
2023-04-06T00:37:08.617Z,6.20
2023-04-06T00:39:11.197Z,5.77
2023-04-06T00:41:12.954Z,6.17
2023-04-06T00:43:15.411Z,6.70
2023-04-06T00:45:17.629Z,6.67
2023-04-06T00:47:19.373Z,5.60
2023-04-06T00:49:21.241Z,5.40
2023-04-06T00:51:23.822Z,5.70
2023-04-06T00:53:26.812Z,6.20
2023-04-06T00:55:29.613Z,5.80
2023-04-06T00:57:32.512Z,6.50
2023-04-06T00:59:34.368Z,5.83
2023-04-06T01:01:36.184Z,5.90
2023-04-06T01:03:38.177Z,6.20
2023-04-06T01:05:41.695Z,6.30
2023-04-06T01:07:43.494Z,6.07
2023-04-06T01:09:45.361Z,6.13
2023-04-06T01:11:47.463Z,6.87
2023-04-06T01:13:49.555Z,6.27
2023-04-06T01:15:51.734Z,5.80
2023-04-06T01:17:53.468Z,6.33
2023-04-06T01:19:55.208Z,5.67
2023-04-06T01:21:56.981Z,5.93
2023-04-06T01:23:58.797Z,6.50
2023-04-06T01:26:00.690Z,5.70
2023-04-06T01:28:02.418Z,5.80
2023-04-06T01:30:05.024Z,5.57
2023-04-06T01:32:06.774Z,5.57
2023-04-06T01:34:08.474Z,5.93
2023-04-06T01:36:10.902Z,5.40
2023-04-06T01:38:13.134Z,5.50
2023-04-06T01:40:14.916Z,5.30
2023-04-06T01:42:16.645Z,5.53
2023-04-06T01:44:19.804Z,5.20
2023-04-06T01:46:21.982Z,5.27
2023-04-06T01:48:24.346Z,6.60
2023-04-06T01:50:26.537Z,5.43
2023-04-06T01:52:29.263Z,5.70
2023-04-06T01:54:30.948Z,5.33
2023-04-06T01:56:32.634Z,5.10
2023-04-06T01:58:34.587Z,5.73
2023-04-06T02:00:37.039Z,5.43
2023-04-06T02:02:39.562Z,5.70
2023-04-06T02:04:41.441Z,5.60
2023-04-06T02:06:43.229Z,6.17
2023-04-06T02:08:45.436Z,6.13
2023-04-06T02:10:47.127Z,6.20
2023-04-06T02:12:49.214Z,6.30
2023-04-06T02:14:51.048Z,6.07
2023-04-06T02:16:53.306Z,5.57
2023-04-06T02:18:55.035Z,5.20
2023-04-06T02:20:56.824Z,5.67
2023-04-06T02:23:01.383Z,6.10
2023-04-06T02:25:03.655Z,5.23
2023-04-06T02:27:06.092Z,5.87
2023-04-06T02:29:08.400Z,5.97
2023-04-06T02:31:11.999Z,4.87
2023-04-06T02:33:14.143Z,4.87
2023-04-06T02:35:16.430Z,4.77
2023-04-06T02:37:18.224Z,5.60
2023-04-06T02:39:20.771Z,5.90
2023-04-06T02:41:22.859Z,5.73
2023-04-06T02:43:25.073Z,6.33
2023-04-06T02:45:27.662Z,5.30
2023-04-06T02:47:29.456Z,5.73
2023-04-06T02:49:31.324Z,5.40
2023-04-06T02:51:33.930Z,6.10
2023-04-06T02:53:35.620Z,5.90
2023-04-06T02:55:37.366Z,5.50
2023-04-06T02:57:39.237Z,6.13
2023-04-06T02:59:41.194Z,5.30
2023-04-06T03:01:43.015Z,5.50
2023-04-06T03:03:44.934Z,5.97
2023-04-06T03:05:47.050Z,5.40
2023-04-06T03:07:49.370Z,5.20
2023-04-06T03:09:51.191Z,6.10
2023-04-06T03:11:52.898Z,6.37
2023-04-06T03:13:57.220Z,5.40
2023-04-06T03:15:58.976Z,5.67
2023-04-06T03:18:00.798Z,5.67
2023-04-06T03:20:02.723Z,5.93
2023-04-06T03:22:04.579Z,5.90
2023-04-06T03:24:06.875Z,5.77
2023-04-06T03:26:08.966Z,4.97
2023-04-06T03:28:11.013Z,5.33
2023-04-06T03:30:13.036Z,5.57
2023-04-06T03:32:14.685Z,6.67
2023-04-06T03:34:16.542Z,5.67
2023-04-06T03:36:18.298Z,5.30
2023-04-06T03:38:20.478Z,5.60
2023-04-06T03:40:22.819Z,5.50
2023-04-06T03:42:24.521Z,5.40
2023-04-06T03:44:26.264Z,6.20
2023-04-06T03:46:27.974Z,5.57
2023-04-06T03:48:29.806Z,5.70
2023-04-06T03:50:31.528Z,5.30
2023-04-06T03:52:33.252Z,5.20
2023-04-06T03:54:34.982Z,6.20
2023-04-06T03:56:36.696Z,6.00
2023-04-06T03:58:38.440Z,4.90
2023-04-06T04:00:40.225Z,5.03
2023-04-06T04:02:43.104Z,6.30
2023-04-06T04:04:45.006Z,6.40
2023-04-06T04:06:46.755Z,5.37
2023-04-06T04:08:48.525Z,5.30
2023-04-06T04:10:50.251Z,5.10
2023-04-06T04:12:52.016Z,5.67
2023-04-06T04:14:53.755Z,5.67
2023-04-06T04:16:55.557Z,5.30
2023-04-06T04:18:59.007Z,5.87
2023-04-06T04:21:01.167Z,5.83
2023-04-06T04:23:03.221Z,6.60
2023-04-06T04:25:05.330Z,5.70
2023-04-06T04:27:07.305Z,5.40
2023-04-06T04:29:09.652Z,5.40
2023-04-06T04:31:11.999Z,5.57
2023-04-06T04:33:13.782Z,5.83
2023-04-06T04:35:16.041Z,6.50
2023-04-06T04:37:17.894Z,5.90
2023-04-06T04:39:19.558Z,5.93
2023-04-06T04:41:21.535Z,5.60
2023-04-06T04:43:23.545Z,5.63
2023-04-06T04:45:25.377Z,5.33
2023-04-06T04:47:27.423Z,6.20
2023-04-06T04:49:29.260Z,6.30
2023-04-06T04:51:32.292Z,6.20
2023-04-06T04:53:34.451Z,5.67
2023-04-06T04:55:36.125Z,6.23
2023-04-06T04:57:37.844Z,6.17
2023-04-06T04:59:39.816Z,5.67
2023-04-06T05:01:54.382Z,6.77
2023-04-06T05:03:57.786Z,6.37
2023-04-06T05:05:59.818Z,6.90
2023-04-06T05:08:02.125Z,6.43
2023-04-06T05:10:04.029Z,6.20
2023-04-06T05:12:06.318Z,6.20
2023-04-06T05:14:08.034Z,7.20
2023-04-06T05:16:09.914Z,6.10
2023-04-06T05:18:12.135Z,6.40
2023-04-06T05:20:14.215Z,6.10
2023-04-06T05:22:18.581Z,6.43
2023-04-06T05:24:20.913Z,6.20
2023-04-06T05:26:22.784Z,6.20
2023-04-06T05:28:25.156Z,7.07
2023-04-06T05:30:27.331Z,6.10
2023-04-06T05:32:29.808Z,7.07
2023-04-06T05:34:31.957Z,6.97
2023-04-06T05:36:34.037Z,6.30
2023-04-06T05:38:36.377Z,6.43
2023-04-06T05:40:42.105Z,6.20
2023-04-06T05:42:45.076Z,5.90
2023-04-06T05:44:46.774Z,6.60
2023-04-06T05:46:48.559Z,6.23
2023-04-06T05:48:50.361Z,6.17
2023-04-06T05:50:52.069Z,5.97
2023-04-06T05:52:54.092Z,6.00
2023-04-06T05:54:55.996Z,5.87
2023-04-06T05:56:57.792Z,6.37
2023-04-06T05:58:59.568Z,6.20
2023-04-06T06:01:02.581Z,6.40
2023-04-06T06:03:07.272Z,6.60
2023-04-06T06:05:11.059Z,6.33
2023-04-06T06:07:12.918Z,6.40
2023-04-06T06:09:14.811Z,7.03
2023-04-06T06:11:17.984Z,6.27
2023-04-06T06:13:19.746Z,6.60
2023-04-06T06:15:21.792Z,7.20
2023-04-06T06:17:23.803Z,7.33
2023-04-06T06:19:25.727Z,6.10
2023-04-06T06:21:27.555Z,6.20
2023-04-06T06:23:29.380Z,6.93
2023-04-06T06:25:33.888Z,6.73
2023-04-06T06:27:35.661Z,6.40
2023-04-06T06:29:37.452Z,6.80
2023-04-06T06:31:39.259Z,6.03
2023-04-06T06:33:41.007Z,6.50
2023-04-06T06:35:42.824Z,6.90
2023-04-06T06:37:45.878Z,7.03
2023-04-06T06:39:47.919Z,6.40
2023-04-06T06:41:49.717Z,6.53
2023-04-06T06:43:51.515Z,6.30
2023-04-06T06:45:53.241Z,6.37
2023-04-06T06:47:55.728Z,6.30
2023-04-06T06:49:57.499Z,6.47
2023-04-06T06:51:59.275Z,6.00
2023-04-06T06:54:01.021Z,6.87
2023-04-06T06:56:02.893Z,6.00
2023-04-06T06:58:04.667Z,6.40
2023-04-06T07:00:08.361Z,7.10
2023-04-06T07:02:10.315Z,7.20
2023-04-06T07:04:12.488Z,6.70
2023-04-06T07:06:14.259Z,6.47
2023-04-06T07:08:16.273Z,6.77
2023-04-06T07:10:18.061Z,7.50
2023-04-06T07:12:19.993Z,7.50
2023-04-06T07:14:21.742Z,7.10
2023-04-06T07:16:23.650Z,7.30
2023-04-06T07:18:26.214Z,6.50
2023-04-06T07:20:29.018Z,7.17
2023-04-06T07:22:31.737Z,7.60
2023-04-06T07:24:33.576Z,7.77
2023-04-06T07:26:35.484Z,7.40
2023-04-06T07:28:37.172Z,6.10
2023-04-06T07:30:39.300Z,7.13
2023-04-06T07:32:41.229Z,8.27
2023-04-06T07:34:42.952Z,7.23
2023-04-06T07:36:44.635Z,8.00
2023-04-06T07:38:47.079Z,7.83
2023-04-06T07:40:48.835Z,7.37
2023-04-06T07:42:51.342Z,7.50
2023-04-06T07:44:53.366Z,7.57
2023-04-06T07:46:55.115Z,7.10
2023-04-06T07:48:58.506Z,7.30
2023-04-06T07:51:04.278Z,8.03
2023-04-06T07:53:06.302Z,7.03
2023-04-06T07:55:09.683Z,9.07
2023-04-06T07:57:11.451Z,8.30
2023-04-06T07:59:14.556Z,7.67
2023-04-06T08:01:16.308Z,8.60
2023-04-06T08:03:18.168Z,8.20
2023-04-06T08:05:20.219Z,8.20
2023-04-06T08:07:22.435Z,8.60
2023-04-06T08:09:24.215Z,8.60
2023-04-06T08:11:27.705Z,8.63
2023-04-06T08:13:29.653Z,8.93
2023-04-06T08:15:31.464Z,8.93
2023-04-06T08:17:33.471Z,8.80
2023-04-06T08:19:35.337Z,8.20
2023-04-06T08:21:37.333Z,8.73
2023-04-06T08:23:39.027Z,8.60
2023-04-06T08:25:40.831Z,8.93
2023-04-06T08:27:42.631Z,9.60
2023-04-06T08:29:44.382Z,9.30
2023-04-06T08:31:46.361Z,9.53
2023-04-06T08:33:48.308Z,8.67
2023-04-06T08:35:50.077Z,9.10
2023-04-06T08:37:51.849Z,8.50
2023-04-06T08:39:53.683Z,9.90
2023-04-06T08:42:00.657Z,9.40
2023-04-06T08:44:03.395Z,8.83
2023-04-06T08:46:06.171Z,8.93
2023-04-06T08:48:09.463Z,8.63
2023-04-06T08:50:12.628Z,9.10
2023-04-06T08:52:18.435Z,8.53
2023-04-06T08:54:20.418Z,10.10
2023-04-06T08:56:27.176Z,8.70
2023-04-06T08:58:38.751Z,10.70
2023-04-06T09:00:41.240Z,9.17
2023-04-06T09:02:46.525Z,9.40
2023-04-06T09:04:50.404Z,10.33
2023-04-06T09:06:52.284Z,9.50
2023-04-06T09:08:54.404Z,9.30
2023-04-06T09:10:56.412Z,9.10
2023-04-06T09:13:05.778Z,9.37
2023-04-06T09:15:18.134Z,8.10
2023-04-06T09:17:33.808Z,9.63
2023-04-06T09:19:46.996Z,9.30
2023-04-06T09:21:48.710Z,10.00
2023-04-06T09:24:03.079Z,8.77
2023-04-06T09:26:16.428Z,9.27
2023-04-06T09:28:18.115Z,8.33
2023-04-06T09:30:19.975Z,7.90
2023-04-06T09:32:21.829Z,8.93
2023-04-06T09:34:24.902Z,8.07
2023-04-06T09:36:35.843Z,8.10
2023-04-06T09:38:53.185Z,8.70
2023-04-06T09:41:01.239Z,7.90
2023-04-06T09:43:07.939Z,8.13
2023-04-06T09:45:10.236Z,8.13
2023-04-06T09:47:12.224Z,7.30
2023-04-06T09:49:14.972Z,9.13
2023-04-06T09:51:19.298Z,7.50
2023-04-06T09:53:22.294Z,6.77
2023-04-06T09:55:51.558Z,7.50
2023-04-06T09:58:06.954Z,6.90
2023-04-06T10:00:12.323Z,7.83
2023-04-06T10:02:27.970Z,7.07
2023-04-06T10:04:48.906Z,8.33
2023-04-06T10:06:53.413Z,9.07
2023-04-06T10:08:57.218Z,9.13
2023-04-06T10:10:59.741Z,7.97
2023-04-06T10:13:01.858Z,8.30
2023-04-06T10:15:04.032Z,7.60
2023-04-06T10:17:06.228Z,9.33
2023-04-06T10:19:17.507Z,6.97
2023-04-06T10:21:24.354Z,7.13
2023-04-06T10:23:34.531Z,6.87
2023-04-06T10:25:37.866Z,7.03
2023-04-06T10:27:39.715Z,7.67
2023-04-06T10:29:50.014Z,7.03
2023-04-06T10:31:51.782Z,8.20
2023-04-06T10:34:03.561Z,7.73
2023-04-06T10:36:34.839Z,7.40
2023-04-06T10:38:42.777Z,7.03
2023-04-06T10:40:44.519Z,7.30
2023-04-06T10:42:46.415Z,7.30
2023-04-06T10:44:50.973Z,7.23
2023-04-06T10:47:03.708Z,7.50
2023-04-06T10:49:15.960Z,7.10
2023-04-06T10:51:19.337Z,8.10
2023-04-06T10:53:28.681Z,7.80
2023-04-06T10:55:31.839Z,7.73
2023-04-06T10:57:34.011Z,6.80
2023-04-06T10:59:36.031Z,6.97
2023-04-06T11:01:37.768Z,5.83
2023-04-06T11:03:53.706Z,6.73
2023-04-06T11:05:55.736Z,7.03
2023-04-06T11:07:57.526Z,7.70
2023-04-06T11:10:13.098Z,7.63
2023-04-06T11:12:26.090Z,7.43
2023-04-06T11:14:28.027Z,6.90
2023-04-06T11:16:32.439Z,7.57
2023-04-06T11:18:34.312Z,6.40
2023-04-06T11:20:36.381Z,7.03
2023-04-06T11:22:48.505Z,6.70
2023-04-06T11:24:50.726Z,6.60
2023-04-06T11:26:54.991Z,6.90
2023-04-06T11:28:57.087Z,6.80
2023-04-06T11:30:59.985Z,6.40
2023-04-06T11:33:03.763Z,6.03
2023-04-06T11:35:06.170Z,5.90
2023-04-06T11:37:13.063Z,6.03
2023-04-06T11:39:20.430Z,6.30
2023-04-06T11:41:26.846Z,6.93
2023-04-06T11:43:32.218Z,6.27
2023-04-06T11:45:46.812Z,6.20
2023-04-06T11:47:58.280Z,5.83
2023-04-06T11:50:26.648Z,6.27
2023-04-06T11:52:29.021Z,6.77
2023-04-06T11:54:39.082Z,6.13
2023-04-06T11:56:41.278Z,6.27
2023-04-06T11:58:43.517Z,6.70
2023-04-06T12:00:47.490Z,6.47
2023-04-06T12:02:50.338Z,6.10
2023-04-06T12:04:52.297Z,5.77
2023-04-06T12:06:54.415Z,5.33
2023-04-06T12:08:56.469Z,5.40
2023-04-06T12:10:58.638Z,5.57
2023-04-06T12:13:00.363Z,5.10
2023-04-06T12:15:02.157Z,5.67
2023-04-06T12:17:04.040Z,5.70
2023-04-06T12:19:06.229Z,4.90
2023-04-06T12:21:08.125Z,5.37
2023-04-06T12:23:09.818Z,4.80
2023-04-06T12:25:12.120Z,5.17
2023-04-06T12:27:14.029Z,5.07
2023-04-06T12:29:15.973Z,4.57
2023-04-06T12:31:22.527Z,5.20
2023-04-06T12:33:24.437Z,5.40
2023-04-06T12:35:26.548Z,4.20
2023-04-06T12:37:28.747Z,5.00
2023-04-06T12:39:31.107Z,4.90
2023-04-06T12:41:33.476Z,4.80
2023-04-06T12:43:35.726Z,4.20
2023-04-06T12:45:37.563Z,4.40
2023-04-06T12:47:39.480Z,4.43
2023-04-06T12:49:41.591Z,4.63
2023-04-06T12:51:43.305Z,4.23
2023-04-06T12:53:45.394Z,4.33
2023-04-06T12:55:47.358Z,4.67
2023-04-06T12:57:49.068Z,4.40
2023-04-06T12:59:51.199Z,4.67
2023-04-06T13:01:53.779Z,5.63
2023-04-06T13:03:56.526Z,5.73
2023-04-06T13:06:00.320Z,5.70
2023-04-06T13:08:02.128Z,5.70
2023-04-06T13:10:04.189Z,5.30
2023-04-06T13:12:06.352Z,4.30
2023-04-06T13:14:08.149Z,4.43
2023-04-06T13:16:10.513Z,5.53
2023-04-06T13:18:12.698Z,5.67
2023-04-06T13:20:14.502Z,5.40
2023-04-06T13:22:16.661Z,5.87
2023-04-06T13:24:18.485Z,5.60
2023-04-06T13:26:20.908Z,5.60
2023-04-06T13:28:22.754Z,5.20
2023-04-06T13:30:24.752Z,6.13
2023-04-06T13:32:27.484Z,5.40
2023-04-06T13:34:29.442Z,5.50
2023-04-06T13:36:32.917Z,5.30
2023-04-06T13:38:34.928Z,5.87
2023-04-06T13:40:39.415Z,5.20
2023-04-06T13:42:41.842Z,5.60
2023-04-06T13:44:43.545Z,5.80
2023-04-06T13:46:45.366Z,5.47
2023-04-06T13:48:48.109Z,5.03
2023-04-06T13:50:50.136Z,5.63
2023-04-06T13:52:51.910Z,5.30
2023-04-06T13:54:53.662Z,4.60
2023-04-06T13:56:55.976Z,4.43
2023-04-06T13:58:57.788Z,5.60
2023-04-06T14:01:07.995Z,5.40
2023-04-06T14:03:10.004Z,5.53
2023-04-06T14:05:11.996Z,5.50
2023-04-06T14:07:14.004Z,5.23
2023-04-06T14:09:16.051Z,5.53
2023-04-06T14:11:17.914Z,5.57
2023-04-06T14:13:20.079Z,5.17
2023-04-06T14:15:22.968Z,5.10
2023-04-06T14:17:24.745Z,4.90
2023-04-06T14:21:52.520Z,5.73
2023-04-06T14:23:54.845Z,5.60
2023-04-06T14:26:05.128Z,5.57
2023-04-06T14:28:07.102Z,5.73
2023-04-06T14:30:09.636Z,5.70
2023-04-06T14:32:12.480Z,5.23
2023-04-06T14:34:14.211Z,5.47
2023-04-06T14:36:16.530Z,6.17
2023-04-06T14:38:18.194Z,6.17
2023-04-06T14:40:19.971Z,5.57
2023-04-06T14:42:21.651Z,6.10
2023-04-06T14:44:23.329Z,5.57
2023-04-06T14:46:25.519Z,5.70
2023-04-06T14:48:27.308Z,5.93
2023-04-06T14:50:29.074Z,5.50
2023-04-06T14:52:32.549Z,5.50
2023-04-06T14:54:34.646Z,6.00
2023-04-06T14:56:37.486Z,6.20
2023-04-06T14:58:39.132Z,5.50
2023-04-06T15:00:40.938Z,5.80
2023-04-06T15:02:44.406Z,6.10
2023-04-06T15:04:46.258Z,6.23
2023-04-06T15:06:47.905Z,6.70
2023-04-06T15:08:51.190Z,6.00
2023-04-06T15:10:53.044Z,6.40
2023-04-06T15:12:54.779Z,7.80
2023-04-06T15:14:56.456Z,5.47
2023-04-06T15:16:58.119Z,5.93
2023-04-06T15:19:01.398Z,5.23
2023-04-06T15:21:03.540Z,5.50
2023-04-06T15:23:05.584Z,5.10
2023-04-06T15:25:07.714Z,5.43
2023-04-06T15:27:09.375Z,6.10
2023-04-06T15:29:11.459Z,6.40
2023-04-06T15:31:28.246Z,5.50
2023-04-06T15:33:35.160Z,6.03
2023-04-06T15:35:41.110Z,5.87
2023-04-06T15:37:42.905Z,5.80
2023-04-06T15:39:44.538Z,5.33
2023-04-06T15:41:46.297Z,5.50
2023-04-06T15:43:48.804Z,5.20
2023-04-06T15:45:50.494Z,5.53
2023-04-06T15:47:52.184Z,6.00
2023-04-06T15:49:53.803Z,5.13
2023-04-06T15:51:55.661Z,5.27
2023-04-06T15:53:58.572Z,5.30
2023-04-06T15:56:05.258Z,5.03
2023-04-06T15:58:07.604Z,5.07
2023-04-06T16:00:10.657Z,5.10
2023-04-06T16:02:12.342Z,4.90
2023-04-06T16:04:14.987Z,4.77
2023-04-06T16:06:17.166Z,4.80
2023-04-06T16:08:19.766Z,5.23
2023-04-06T16:10:21.473Z,4.63
2023-04-06T16:12:23.165Z,4.70
2023-04-06T16:14:24.821Z,5.00
2023-04-06T16:16:27.357Z,5.17
2023-04-06T16:18:29.362Z,5.17
2023-04-06T16:20:32.134Z,5.40
2023-04-06T16:22:33.786Z,5.67
2023-04-06T16:24:35.818Z,4.50
2023-04-06T16:26:37.591Z,4.50
2023-04-06T16:28:39.344Z,5.33
2023-04-06T16:30:43.599Z,4.97
2023-04-06T16:32:49.512Z,5.03
2023-04-06T16:34:52.282Z,4.97
2023-04-06T16:36:56.538Z,5.00
2023-04-06T16:38:59.553Z,5.03
2023-04-06T16:41:02.471Z,5.47
2023-04-06T16:43:05.068Z,4.60
2023-04-06T16:45:07.423Z,5.63
2023-04-06T16:47:09.409Z,8.20
2023-04-06T16:49:11.212Z,11.03
2023-04-06T16:51:12.939Z,11.00
2023-04-06T16:53:14.679Z,7.07
2023-04-06T16:55:16.338Z,5.43
2023-04-06T16:57:18.141Z,5.23
2023-04-06T16:59:19.883Z,5.67
2023-04-06T17:01:23.717Z,5.53
2023-04-06T17:03:26.535Z,5.50
2023-04-06T17:05:30.788Z,4.90
2023-04-06T17:07:33.013Z,5.37
2023-04-06T17:09:34.689Z,5.27
2023-04-06T17:11:46.155Z,4.73
2023-04-06T17:13:51.229Z,5.10
2023-04-06T17:15:52.984Z,4.93
2023-04-06T17:17:55.055Z,4.80
2023-04-06T17:19:56.875Z,5.10
2023-04-06T17:21:58.637Z,4.87
2023-04-06T17:24:00.316Z,4.00
2023-04-06T17:26:06.315Z,5.00
2023-04-06T17:28:09.153Z,4.80
2023-04-06T17:30:12.516Z,4.47
2023-04-06T17:32:14.258Z,4.50
2023-04-06T17:34:16.041Z,4.80
2023-04-06T17:38:19.966Z,4.43
2023-04-06T17:40:21.665Z,4.30
2023-04-06T17:44:25.363Z,4.77
2023-04-06T17:46:27.312Z,5.17
2023-04-06T17:48:29.975Z,5.67
2023-04-06T17:50:31.725Z,5.83
2023-04-06T17:52:33.386Z,6.00
2023-04-06T17:54:36.057Z,5.90
2023-04-06T17:56:37.712Z,5.60
2023-04-06T17:58:39.848Z,5.60
2023-04-06T18:00:41.597Z,5.00
2023-04-06T18:02:43.381Z,5.20
2023-04-06T18:04:45.528Z,4.40
2023-04-06T18:06:47.294Z,5.03
2023-04-06T18:08:49.365Z,4.83
2023-04-06T18:10:51.321Z,4.17
2023-04-06T18:12:53.054Z,4.00
2023-04-06T18:14:54.739Z,4.47
2023-04-06T18:16:56.717Z,4.80
2023-04-06T18:18:58.812Z,4.87
2023-04-06T18:21:04.301Z,3.70
2023-04-06T18:23:06.138Z,4.13
2023-04-06T18:25:08.199Z,4.10
2023-04-06T18:27:11.336Z,4.67
2023-04-06T18:29:13.104Z,4.60
2023-04-06T18:31:15.121Z,3.87
2023-04-06T18:33:16.746Z,3.70
2023-04-06T18:35:18.352Z,5.10
2023-04-06T18:37:20.002Z,4.37
2023-04-06T18:39:22.146Z,4.60
2023-04-06T18:41:24.072Z,5.33
2023-04-06T18:43:25.949Z,4.47
2023-04-06T18:45:27.724Z,4.93
2023-04-06T18:47:29.604Z,4.90
2023-04-06T18:49:31.408Z,5.40
2023-04-06T18:51:33.489Z,6.57
2023-04-06T18:53:37.309Z,5.70
2023-04-06T18:55:40.996Z,5.57
2023-04-06T18:57:42.683Z,5.20
2023-04-06T18:59:44.326Z,5.20
2023-04-06T19:01:50.863Z,4.97
2023-04-06T19:03:54.165Z,5.30
2023-04-06T19:05:56.204Z,4.70
2023-04-06T19:07:57.965Z,5.27
2023-04-06T19:09:59.936Z,5.13
2023-04-06T19:12:01.851Z,4.90
2023-04-06T19:14:03.756Z,4.83
2023-04-06T19:16:11.495Z,4.80
2023-04-06T19:18:13.210Z,5.23
2023-04-06T19:20:14.903Z,4.60
2023-04-06T19:22:16.656Z,5.00
2023-04-06T19:24:18.357Z,4.20
2023-04-06T19:26:22.021Z,4.83
2023-04-06T19:28:23.712Z,4.90
2023-04-06T19:30:25.522Z,4.80
2023-04-06T19:32:27.662Z,5.50
2023-04-06T19:34:29.821Z,5.00
2023-04-06T19:36:32.423Z,4.40
2023-04-06T19:38:34.907Z,4.60
2023-04-06T19:40:36.642Z,4.33
2023-04-06T19:42:38.794Z,4.37
2023-04-06T19:44:40.682Z,4.60
2023-04-06T19:46:43.016Z,5.17
2023-04-06T19:48:44.749Z,4.57
2023-04-06T19:50:46.453Z,4.40
2023-04-06T19:52:49.641Z,4.70
2023-04-06T19:54:51.313Z,4.90
2023-04-06T19:56:52.994Z,4.67
2023-04-06T19:58:54.676Z,4.50
2023-04-06T20:00:56.356Z,3.63
2023-04-06T20:02:59.006Z,4.30
2023-04-06T20:05:00.897Z,4.70
2023-04-06T20:07:02.795Z,5.17
2023-04-06T20:09:04.557Z,4.17
2023-04-06T20:11:08.992Z,5.00
2023-04-06T20:13:10.792Z,4.80
2023-04-06T20:15:12.914Z,4.53
2023-04-06T20:17:14.596Z,3.83
2023-04-06T20:19:16.266Z,3.70
2023-04-06T20:21:17.955Z,4.20
2023-04-06T20:23:19.854Z,3.40
2023-04-06T20:25:22.065Z,3.80
2023-04-06T20:27:23.960Z,4.13
2023-04-06T20:29:25.731Z,3.67
2023-04-06T20:31:28.457Z,4.10
2023-04-06T20:33:30.424Z,3.83
2023-04-06T20:35:32.435Z,3.10
2023-04-06T20:37:37.151Z,3.63
2023-04-06T20:39:38.875Z,3.50
2023-04-06T20:41:40.515Z,4.13
2023-04-06T20:43:42.257Z,4.30
2023-04-06T20:45:43.961Z,3.70
2023-04-06T20:47:46.079Z,3.50
2023-04-06T20:49:47.879Z,2.90
2023-04-06T20:51:51.331Z,3.07
2023-04-06T20:53:53.079Z,3.53
2023-04-06T20:55:54.817Z,2.93
2023-04-06T20:57:56.532Z,2.87
2023-04-06T20:59:58.275Z,3.13
2023-04-06T21:01:59.999Z,2.63
2023-04-06T21:04:04.164Z,2.27
2023-04-06T21:06:06.246Z,2.60
2023-04-06T21:08:07.968Z,2.27
2023-04-06T21:10:10.384Z,2.83
2023-04-06T21:12:12.308Z,2.00
2023-04-06T21:14:14.718Z,2.50
2023-04-06T21:16:16.622Z,2.53
2023-04-06T21:18:18.516Z,2.30
2023-04-06T21:20:20.410Z,3.20
2023-04-06T21:22:23.112Z,2.30
2023-04-06T21:24:24.758Z,2.93
2023-04-06T21:26:26.705Z,2.47
2023-04-06T21:28:28.452Z,3.00
2023-04-06T21:30:36.681Z,2.77
2023-04-06T21:32:38.478Z,2.70
2023-04-06T21:34:42.850Z,3.13
2023-04-06T21:36:44.559Z,3.33
2023-04-06T21:38:46.197Z,3.30
2023-04-06T21:40:55.683Z,2.97
2023-04-06T21:42:57.334Z,3.57
2023-04-06T21:44:59.746Z,3.37
2023-04-06T21:47:02.000Z,3.17
2023-04-06T21:49:03.672Z,3.43
2023-04-06T21:51:05.430Z,3.20
2023-04-06T21:53:07.186Z,4.10
2023-04-06T21:55:09.375Z,3.50
2023-04-06T21:57:13.451Z,3.20
2023-04-06T21:59:15.761Z,3.80
2023-04-06T22:01:18.162Z,3.97
2023-04-06T22:03:20.032Z,3.10
2023-04-06T22:05:21.886Z,3.90
2023-04-06T22:07:23.723Z,3.60
2023-04-06T22:09:25.489Z,4.33
2023-04-06T22:11:27.266Z,4.60
2023-04-06T22:13:29.355Z,4.77
2023-04-06T22:15:31.199Z,4.37
2023-04-06T22:17:33.475Z,4.83
2023-04-06T22:19:35.218Z,4.77
2023-04-06T22:21:37.005Z,4.67
2023-04-06T22:23:42.298Z,4.67
2023-04-06T22:25:44.336Z,4.80
2023-04-06T22:27:46.049Z,6.13
2023-04-06T22:29:47.695Z,5.20
2023-04-06T22:31:49.461Z,6.13
2023-04-06T22:33:51.268Z,5.53
2023-04-06T22:35:53.027Z,6.30
2023-04-06T22:37:54.769Z,5.40
2023-04-06T22:39:56.466Z,6.13
2023-04-06T22:41:58.230Z,5.40
2023-04-06T22:44:00.035Z,6.50
2023-04-06T22:46:01.784Z,6.27
2023-04-06T22:48:03.716Z,7.10
2023-04-06T22:50:06.535Z,6.80
2023-04-06T22:52:08.212Z,6.20
2023-04-06T22:54:11.128Z,7.57
2023-04-06T22:56:12.948Z,7.10
2023-04-06T22:58:14.599Z,6.63
2023-04-06T23:00:16.747Z,6.20
2023-04-06T23:02:18.485Z,6.90
2023-04-06T23:04:20.917Z,7.57
2023-04-06T23:06:23.037Z,6.90
2023-04-06T23:08:24.661Z,8.10
2023-04-06T23:10:26.426Z,7.50
2023-04-06T23:12:28.121Z,7.80
2023-04-06T23:14:29.948Z,8.20
2023-04-06T23:16:31.779Z,8.07
2023-04-06T23:18:33.698Z,9.37
2023-04-06T23:20:35.508Z,8.27
2023-04-06T23:22:37.275Z,8.10
2023-04-06T23:24:38.928Z,9.97
2023-04-06T23:26:41.160Z,9.63
2023-04-06T23:28:42.858Z,8.47
2023-04-06T23:30:44.494Z,9.80
2023-04-06T23:32:46.353Z,8.77
2023-04-06T23:34:48.139Z,9.53
2023-04-06T23:36:49.885Z,8.93
2023-04-06T23:38:51.581Z,9.50
2023-04-06T23:40:53.255Z,9.63
2023-04-06T23:42:54.972Z,10.43
2023-04-06T23:44:56.761Z,9.43
2023-04-06T23:46:58.602Z,8.20
2023-04-06T23:49:00.281Z,9.70
2023-04-06T23:51:02.014Z,10.10
2023-04-06T23:53:04.716Z,10.90
2023-04-06T23:55:07.215Z,9.70
2023-04-06T23:57:08.830Z,8.20
2023-04-06T23:59:10.575Z,8.77
